sensor_id;sensor_type;location;lat;lon;timestamp;pressure;altitude;pressure_sealevel;temperature;humidity
41140;BME280;26881;48.784;9.192;2023-02-12T00:04:18;100579.38;;;6.34;74.76
41140;BME280;26881;48.784;9.192;2023-02-12T00:09:39;100572.47;;;6.30;75.27
41140;BME280;26881;48.784;9.192;2023-02-12T00:15:01;100582.81;;;6.33;74.90
41140;BME280;26881;48.784;9.192;2023-02-12T00:20:23;100591.50;;;6.32;74.88
41140;BME280;26881;48.784;9.192;2023-02-12T00:25:45;100594.06;;;6.35;75.14
41140;BME280;26881;48.784;9.192;2023-02-12T00:31:09;100585.41;;;6.33;75.24
41140;BME280;26881;48.784;9.192;2023-02-12T00:36:32;100589.75;;;6.34;75.55
41140;BME280;26881;48.784;9.192;2023-02-12T00:41:54;100589.81;;;6.29;75.60
41140;BME280;26881;48.784;9.192;2023-02-12T00:47:16;100603.66;;;6.27;76.19
41140;BME280;26881;48.784;9.192;2023-02-12T00:52:37;100603.69;;;6.25;76.35
41140;BME280;26881;48.784;9.192;2023-02-12T00:57:59;100611.44;;;6.28;76.10
41140;BME280;26881;48.784;9.192;2023-02-12T01:03:21;100601.06;;;6.30;75.63
41140;BME280;26881;48.784;9.192;2023-02-12T01:08:43;100606.25;;;6.28;75.49
41140;BME280;26881;48.784;9.192;2023-02-12T01:14:06;100601.09;;;6.24;75.88
41140;BME280;26881;48.784;9.192;2023-02-12T01:19:27;100605.44;;;6.25;76.28
41140;BME280;26881;48.784;9.192;2023-02-12T01:24:49;100607.22;;;6.17;76.05
41140;BME280;26881;48.784;9.192;2023-02-12T01:30:12;100599.47;;;6.14;76.45
41140;BME280;26881;48.784;9.192;2023-02-12T01:35:36;100596.00;;;6.13;76.07
41140;BME280;26881;48.784;9.192;2023-02-12T01:41:07;100595.16;;;6.11;76.04
41140;BME280;26881;48.784;9.192;2023-02-12T01:46:29;100598.66;;;6.08;76.54
41140;BME280;26881;48.784;9.192;2023-02-12T01:51:55;100601.22;;;6.13;75.30
41140;BME280;26881;48.784;9.192;2023-02-12T01:57:20;100589.16;;;6.04;76.27
41140;BME280;26881;48.784;9.192;2023-02-12T02:02:44;100586.50;;;6.07;75.62
41140;BME280;26881;48.784;9.192;2023-02-12T02:08:06;100589.97;;;6.09;75.97
41140;BME280;26881;48.784;9.192;2023-02-12T02:13:28;100584.69;;;6.20;75.94
41140;BME280;26881;48.784;9.192;2023-02-12T02:30:32;100562.16;;;6.21;75.30
41140;BME280;26881;48.784;9.192;2023-02-12T02:36:12;100571.75;;;6.14;75.63
41140;BME280;26881;48.784;9.192;2023-02-12T02:41:43;100566.59;;;6.09;75.74
41140;BME280;26881;48.784;9.192;2023-02-12T02:47:09;100571.81;;;6.06;75.61
41140;BME280;26881;48.784;9.192;2023-02-12T02:52:40;100564.00;;;6.08;76.02
41140;BME280;26881;48.784;9.192;2023-02-12T02:58:09;100568.28;;;6.14;76.08
41140;BME280;26881;48.784;9.192;2023-02-12T03:09:43;100568.25;;;6.15;76.04
41140;BME280;26881;48.784;9.192;2023-02-12T03:15:12;100576.09;;;6.14;75.97
41140;BME280;26881;48.784;9.192;2023-02-12T03:20:43;100578.72;;;6.09;75.94
41140;BME280;26881;48.784;9.192;2023-02-12T03:26:16;100575.22;;;6.11;75.80
41140;BME280;26881;48.784;9.192;2023-02-12T03:32:05;100579.66;;;6.02;76.27
41140;BME280;26881;48.784;9.192;2023-02-12T03:37:34;100568.41;;;6.00;76.33
41140;BME280;26881;48.784;9.192;2023-02-12T03:43:13;100572.78;;;5.87;77.30
41140;BME280;26881;48.784;9.192;2023-02-12T03:48:48;100572.75;;;5.93;77.05
41140;BME280;26881;48.784;9.192;2023-02-12T03:54:17;100577.09;;;5.97;76.83
41140;BME280;26881;48.784;9.192;2023-02-12T03:59:40;100584.00;;;5.97;76.63
41140;BME280;26881;48.784;9.192;2023-02-12T04:05:04;100584.81;;;6.06;76.05
41140;BME280;26881;48.784;9.192;2023-02-12T04:10:59;100583.06;;;6.08;76.11
41140;BME280;26881;48.784;9.192;2023-02-12T04:16:44;100590.00;;;6.03;76.51
41140;BME280;26881;48.784;9.192;2023-02-12T04:28:13;100594.38;;;5.98;76.27
41140;BME280;26881;48.784;9.192;2023-02-12T04:33:47;100604.75;;;5.97;76.62
41140;BME280;26881;48.784;9.192;2023-02-12T04:39:20;100603.91;;;5.93;76.65
41140;BME280;26881;48.784;9.192;2023-02-12T04:44:43;100607.44;;;5.87;76.56
41140;BME280;26881;48.784;9.192;2023-02-12T04:50:05;100613.44;;;5.93;76.58
41140;BME280;26881;48.784;9.192;2023-02-12T04:55:27;100613.47;;;5.88;76.53
41140;BME280;26881;48.784;9.192;2023-02-12T05:00:48;100614.38;;;5.85;76.00
41140;BME280;26881;48.784;9.192;2023-02-12T05:06:10;100615.25;;;5.81;76.94
41140;BME280;26881;48.784;9.192;2023-02-12T05:11:32;100611.75;;;5.87;76.38
41140;BME280;26881;48.784;9.192;2023-02-12T05:16:54;100610.88;;;5.88;75.86
41140;BME280;26881;48.784;9.192;2023-02-12T05:22:16;100604.84;;;5.87;76.47
41140;BME280;26881;48.784;9.192;2023-02-12T05:27:37;100606.63;;;5.73;76.81
41140;BME280;26881;48.784;9.192;2023-02-12T05:33:00;100603.22;;;5.68;77.28
41140;BME280;26881;48.784;9.192;2023-02-12T05:38:22;100610.16;;;5.69;76.73
41140;BME280;26881;48.784;9.192;2023-02-12T05:43:44;100607.56;;;5.67;76.76
41140;BME280;26881;48.784;9.192;2023-02-12T05:49:10;100610.13;;;5.70;75.67
41140;BME280;26881;48.784;9.192;2023-02-12T05:54:31;100608.44;;;5.63;76.02
41140;BME280;26881;48.784;9.192;2023-02-12T05:59:53;100611.88;;;5.64;75.77
41140;BME280;26881;48.784;9.192;2023-02-12T06:05:15;100610.16;;;5.67;75.81
41140;BME280;26881;48.784;9.192;2023-02-12T06:10:37;100618.78;;;5.69;76.10
41140;BME280;26881;48.784;9.192;2023-02-12T06:15:59;100616.16;;;5.71;76.37
41140;BME280;26881;48.784;9.192;2023-02-12T06:21:23;100614.44;;;5.76;76.42
41140;BME280;26881;48.784;9.192;2023-02-12T06:26:48;100615.25;;;5.80;75.89
41140;BME280;26881;48.784;9.192;2023-02-12T06:32:10;100615.28;;;5.75;76.40
41140;BME280;26881;48.784;9.192;2023-02-12T06:37:34;100629.09;;;5.80;76.16
41140;BME280;26881;48.784;9.192;2023-02-12T06:42:57;100631.72;;;5.79;76.43
41140;BME280;26881;48.784;9.192;2023-02-12T06:48:19;100643.81;;;5.83;76.25
41140;BME280;26881;48.784;9.192;2023-02-12T06:53:41;100646.44;;;5.78;76.47
41140;BME280;26881;48.784;9.192;2023-02-12T06:59:03;100638.59;;;5.87;76.56
41140;BME280;26881;48.784;9.192;2023-02-12T07:04:25;100645.56;;;5.81;77.18
41140;BME280;26881;48.784;9.192;2023-02-12T07:09:47;100649.81;;;5.89;76.05
41140;BME280;26881;48.784;9.192;2023-02-12T07:15:09;100647.22;;;5.96;76.12
41140;BME280;26881;48.784;9.192;2023-02-12T07:20:31;100643.63;;;6.10;74.72
41140;BME280;26881;48.784;9.192;2023-02-12T07:25:57;100654.91;;;6.09;74.78
41140;BME280;26881;48.784;9.192;2023-02-12T07:31:21;100649.78;;;6.02;75.39
41140;BME280;26881;48.784;9.192;2023-02-12T07:36:43;100650.66;;;5.91;75.62
41140;BME280;26881;48.784;9.192;2023-02-12T07:42:05;100654.09;;;6.03;74.87
41140;BME280;26881;48.784;9.192;2023-02-12T07:47:29;100651.56;;;5.90;75.74
41140;BME280;26881;48.784;9.192;2023-02-12T07:52:50;100648.91;;;5.98;75.30
41140;BME280;26881;48.784;9.192;2023-02-12T07:58:12;100650.63;;;6.04;75.21
41140;BME280;26881;48.784;9.192;2023-02-12T08:03:34;100655.78;;;6.08;74.90
41140;BME280;26881;48.784;9.192;2023-02-12T08:08:58;100659.22;;;6.10;75.03
41140;BME280;26881;48.784;9.192;2023-02-12T08:14:21;100652.31;;;6.11;74.37
41140;BME280;26881;48.784;9.192;2023-02-12T08:19:43;100648.75;;;6.23;74.28
41140;BME280;26881;48.784;9.192;2023-02-12T08:25:05;100652.16;;;6.28;73.94
41140;BME280;26881;48.784;9.192;2023-02-12T08:30:26;100643.47;;;6.30;74.23
41140;BME280;26881;48.784;9.192;2023-02-12T08:35:48;100644.31;;;6.36;74.57
41140;BME280;26881;48.784;9.192;2023-02-12T08:41:21;100645.13;;;6.42;74.48
41140;BME280;26881;48.784;9.192;2023-02-12T08:46:46;100644.13;;;6.54;74.26
41140;BME280;26881;48.784;9.192;2023-02-12T08:52:08;100649.34;;;6.54;73.98
41140;BME280;26881;48.784;9.192;2023-02-12T08:57:29;100648.47;;;6.53;73.88
41140;BME280;26881;48.784;9.192;2023-02-12T09:02:51;100648.31;;;6.70;73.92
41140;BME280;26881;48.784;9.192;2023-02-12T09:08:13;100649.97;;;6.81;73.51
41140;BME280;26881;48.784;9.192;2023-02-12T09:13:35;100657.78;;;6.81;73.22
41140;BME280;26881;48.784;9.192;2023-02-12T09:18:57;100660.38;;;6.79;72.62
41140;BME280;26881;48.784;9.192;2023-02-12T09:24:18;100651.81;;;6.68;73.78
41140;BME280;26881;48.784;9.192;2023-02-12T09:29:40;100649.03;;;6.85;73.21
41140;BME280;26881;48.784;9.192;2023-02-12T09:35:02;100651.72;;;6.75;72.97
41140;BME280;26881;48.784;9.192;2023-02-12T09:40:32;100655.97;;;6.83;73.66
41140;BME280;26881;48.784;9.192;2023-02-12T09:51:59;100655.00;;;6.96;73.06
41140;BME280;26881;48.784;9.192;2023-02-12T09:57:32;100660.09;;;7.05;73.75
41140;BME280;26881;48.784;9.192;2023-02-12T10:03:01;100654.03;;;7.06;73.90
41140;BME280;26881;48.784;9.192;2023-02-12T10:25:42;100652.75;;;7.38;74.72
41140;BME280;26881;48.784;9.192;2023-02-12T10:31:16;100649.25;;;7.44;74.44
41140;BME280;26881;48.784;9.192;2023-02-12T10:36:49;100643.06;;;7.49;74.23
41140;BME280;26881;48.784;9.192;2023-02-12T10:42:35;100636.91;;;7.56;74.54
41140;BME280;26881;48.784;9.192;2023-02-12T10:48:22;100634.03;;;7.75;73.71
41140;BME280;26881;48.784;9.192;2023-02-12T10:53:46;100627.06;;;7.77;74.12
41140;BME280;26881;48.784;9.192;2023-02-12T10:59:21;100624.34;;;7.85;73.62
41140;BME280;26881;48.784;9.192;2023-02-12T11:04:43;100621.66;;;7.89;74.15
41140;BME280;26881;48.784;9.192;2023-02-12T11:10:19;100611.31;;;7.86;73.73
41140;BME280;26881;48.784;9.192;2023-02-12T11:15:48;100616.38;;;7.94;74.20
41140;BME280;26881;48.784;9.192;2023-02-12T11:21:11;100610.25;;;7.98;73.94
41140;BME280;26881;48.784;9.192;2023-02-12T11:26:33;100615.41;;;8.01;73.84
41140;BME280;26881;48.784;9.192;2023-02-12T11:32:00;100606.59;;;8.08;74.09
41140;BME280;26881;48.784;9.192;2023-02-12T11:37:22;100602.16;;;8.15;73.68
41140;BME280;26881;48.784;9.192;2023-02-12T11:42:56;100607.44;;;8.12;74.45
41140;BME280;26881;48.784;9.192;2023-02-12T11:48:26;100600.38;;;8.17;74.06
41140;BME280;26881;48.784;9.192;2023-02-12T11:53:52;100589.81;;;8.24;73.79
41140;BME280;26881;48.784;9.192;2023-02-12T12:04:49;100590.56;;;8.33;73.78
41140;BME280;26881;48.784;9.192;2023-02-12T12:10:29;100591.44;;;8.32;73.22
41140;BME280;26881;48.784;9.192;2023-02-12T12:16:27;100585.22;;;8.39;73.43
41140;BME280;26881;48.784;9.192;2023-02-12T12:34:12;100577.09;;;8.59;72.95
41140;BME280;26881;48.784;9.192;2023-02-12T12:39:57;100577.16;;;8.56;72.59
41140;BME280;26881;48.784;9.192;2023-02-12T12:51:22;100569.00;;;8.73;72.67
41140;BME280;26881;48.784;9.192;2023-02-12T12:57:05;100555.31;;;9.03;71.15
41140;BME280;26881;48.784;9.192;2023-02-12T13:14:16;100541.38;;;9.45;69.71
41140;BME280;26881;48.784;9.192;2023-02-12T13:19:55;100531.06;;;9.39;69.40
41140;BME280;26881;48.784;9.192;2023-02-12T13:25:33;100530.19;;;9.38;69.56
41140;BME280;26881;48.784;9.192;2023-02-12T13:30:57;100523.47;;;9.28;70.08
41140;BME280;26881;48.784;9.192;2023-02-12T13:36:20;100526.00;;;9.31;70.15
41140;BME280;26881;48.784;9.192;2023-02-12T13:41:50;100518.81;;;9.41;70.13
41140;BME280;26881;48.784;9.192;2023-02-12T13:52:57;100503.03;;;9.47;69.82
41140;BME280;26881;48.784;9.192;2023-02-12T14:04:42;100496.88;;;9.48;69.79
41140;BME280;26881;48.784;9.192;2023-02-12T14:10:06;100499.56;;;9.46;69.91
41140;BME280;26881;48.784;9.192;2023-02-12T14:15:38;100490.69;;;9.54;69.77
41140;BME280;26881;48.784;9.192;2023-02-12T14:26:35;100477.50;;;9.58;69.63
41140;BME280;26881;48.784;9.192;2023-02-12T14:31:58;100473.06;;;9.62;69.79
41140;BME280;26881;48.784;9.192;2023-02-12T14:37:32;100473.03;;;9.63;69.50
41140;BME280;26881;48.784;9.192;2023-02-12T14:42:59;100473.22;;;9.56;69.65
41140;BME280;26881;48.784;9.192;2023-02-12T14:48:39;100464.38;;;9.61;69.19
41140;BME280;26881;48.784;9.192;2023-02-12T14:54:13;100464.38;;;9.60;69.25
41140;BME280;26881;48.784;9.192;2023-02-12T14:59:40;100465.72;;;9.76;68.89
41140;BME280;26881;48.784;9.192;2023-02-12T15:05:22;100469.34;;;9.70;69.23
41140;BME280;26881;48.784;9.192;2023-02-12T15:10:52;100469.34;;;9.72;69.42
41140;BME280;26881;48.784;9.192;2023-02-12T15:16:26;100471.06;;;9.71;69.19
41140;BME280;26881;48.784;9.192;2023-02-12T15:21:51;100467.00;;;9.60;69.64
41140;BME280;26881;48.784;9.192;2023-02-12T15:27:16;100466.13;;;9.61;69.29
41140;BME280;26881;48.784;9.192;2023-02-12T15:32:38;100460.81;;;9.64;69.30
41140;BME280;26881;48.784;9.192;2023-02-12T15:38:01;100455.72;;;9.58;69.47
41140;BME280;26881;48.784;9.192;2023-02-12T15:43:27;100455.97;;;9.48;69.72
41140;BME280;26881;48.784;9.192;2023-02-12T15:48:49;100455.06;;;9.49;69.42
41140;BME280;26881;48.784;9.192;2023-02-12T15:54:16;100446.44;;;9.46;70.00
41140;BME280;26881;48.784;9.192;2023-02-12T15:59:39;100448.50;;;9.33;70.19
41140;BME280;26881;48.784;9.192;2023-02-12T16:05:03;100446.97;;;9.24;70.53
41140;BME280;26881;48.784;9.192;2023-02-12T16:10:26;100446.25;;;9.18;70.80
41140;BME280;26881;48.784;9.192;2023-02-12T16:16:07;100451.56;;;9.13;70.79
41140;BME280;26881;48.784;9.192;2023-02-12T16:21:29;100454.56;;;8.96;71.72
41140;BME280;26881;48.784;9.192;2023-02-12T16:26:51;100451.44;;;8.80;72.57
41140;BME280;26881;48.784;9.192;2023-02-12T16:32:36;100464.78;;;8.67;73.19
41140;BME280;26881;48.784;9.192;2023-02-12T16:43:41;100472.25;;;8.41;74.16
41140;BME280;26881;48.784;9.192;2023-02-12T16:49:03;100468.88;;;8.35;74.65
41140;BME280;26881;48.784;9.192;2023-02-12T16:54:32;100475.91;;;8.30;74.89
41140;BME280;26881;48.784;9.192;2023-02-12T16:59:54;100485.72;;;8.17;75.65
41140;BME280;26881;48.784;9.192;2023-02-12T17:05:16;100497.28;;;8.02;76.16
41140;BME280;26881;48.784;9.192;2023-02-12T17:10:39;100499.97;;;7.97;76.41
41140;BME280;26881;48.784;9.192;2023-02-12T17:16:01;100501.69;;;7.97;76.69
41140;BME280;26881;48.784;9.192;2023-02-12T17:21:33;100500.13;;;7.87;76.50
41140;BME280;26881;48.784;9.192;2023-02-12T17:27:00;100506.41;;;7.76;77.42
41140;BME280;26881;48.784;9.192;2023-02-12T17:32:22;100505.78;;;7.60;77.93
41140;BME280;26881;48.784;9.192;2023-02-12T17:37:45;100509.81;;;7.80;76.40
41140;BME280;26881;48.784;9.192;2023-02-12T17:43:08;100509.16;;;7.67;76.63
41140;BME280;26881;48.784;9.192;2023-02-12T17:48:30;100503.28;;;7.53;77.75
41140;BME280;26881;48.784;9.192;2023-02-12T17:53:52;100512.13;;;7.43;78.21
41140;BME280;26881;48.784;9.192;2023-02-12T17:59:14;100512.22;;;7.36;78.26
41140;BME280;26881;48.784;9.192;2023-02-12T18:04:35;100516.63;;;7.33;77.85
41140;BME280;26881;48.784;9.192;2023-02-12T18:09:57;100521.88;;;7.28;78.28
41140;BME280;26881;48.784;9.192;2023-02-12T18:15:19;100519.28;;;7.30;77.91
41140;BME280;26881;48.784;9.192;2023-02-12T18:20:42;100522.88;;;7.20;78.63
41140;BME280;26881;48.784;9.192;2023-02-12T18:26:09;100526.44;;;7.11;79.19
41140;BME280;26881;48.784;9.192;2023-02-12T18:31:31;100520.50;;;7.04;79.25
41140;BME280;26881;48.784;9.192;2023-02-12T18:36:53;100524.19;;;6.85;80.13
41140;BME280;26881;48.784;9.192;2023-02-12T18:42:15;100518.19;;;6.78;79.96
41140;BME280;26881;48.784;9.192;2023-02-12T18:47:37;100508.69;;;6.75;80.64
41140;BME280;26881;48.784;9.192;2023-02-12T18:52:58;100518.19;;;6.81;80.64
41140;BME280;26881;48.784;9.192;2023-02-12T18:58:20;100517.28;;;6.82;80.46
41140;BME280;26881;48.784;9.192;2023-02-12T19:03:43;100522.44;;;6.87;79.99
41140;BME280;26881;48.784;9.192;2023-02-12T19:09:05;100521.66;;;6.80;80.17
41140;BME280;26881;48.784;9.192;2023-02-12T19:14:28;100520.00;;;6.76;80.32
41140;BME280;26881;48.784;9.192;2023-02-12T19:19:50;100531.25;;;6.73;79.91
41140;BME280;26881;48.784;9.192;2023-02-12T19:25:12;100527.00;;;6.69;79.56
41140;BME280;26881;48.784;9.192;2023-02-12T19:30:38;100526.28;;;6.55;80.53
41140;BME280;26881;48.784;9.192;2023-02-12T19:36:00;100537.59;;;6.48;80.32
41140;BME280;26881;48.784;9.192;2023-02-12T19:41:24;100535.06;;;6.45;80.21
41140;BME280;26881;48.784;9.192;2023-02-12T19:46:47;100542.00;;;6.43;79.48
41140;BME280;26881;48.784;9.192;2023-02-12T19:52:09;100545.50;;;6.40;79.57
41140;BME280;26881;48.784;9.192;2023-02-12T19:57:32;100545.50;;;6.39;79.20
41140;BME280;26881;48.784;9.192;2023-02-12T20:02:53;100546.53;;;6.24;79.14
41140;BME280;26881;48.784;9.192;2023-02-12T20:08:17;100549.16;;;6.21;79.48
41140;BME280;26881;48.784;9.192;2023-02-12T20:13:39;100549.16;;;6.19;79.12
41140;BME280;26881;48.784;9.192;2023-02-12T20:19:14;100545.84;;;6.05;79.23
41140;BME280;26881;48.784;9.192;2023-02-12T20:24:36;100553.63;;;6.03;79.35
41140;BME280;26881;48.784;9.192;2023-02-12T20:29:58;100554.47;;;6.07;78.99
41140;BME280;26881;48.784;9.192;2023-02-12T20:35:20;100559.75;;;5.99;79.46
41140;BME280;26881;48.784;9.192;2023-02-12T20:40:42;100558.91;;;5.91;79.62
41140;BME280;26881;48.784;9.192;2023-02-12T20:46:11;100566.75;;;5.85;79.79
41140;BME280;26881;48.784;9.192;2023-02-12T20:51:33;100567.66;;;5.78;80.11
41140;BME280;26881;48.784;9.192;2023-02-12T20:56:55;100565.13;;;5.72;80.29
41140;BME280;26881;48.784;9.192;2023-02-12T21:02:17;100568.59;;;5.72;79.96
41140;BME280;26881;48.784;9.192;2023-02-12T21:07:39;100571.28;;;5.58;80.41
41140;BME280;26881;48.784;9.192;2023-02-12T21:13:00;100567.03;;;5.46;81.16
41140;BME280;26881;48.784;9.192;2023-02-12T21:18:22;100563.50;;;5.55;81.14
41140;BME280;26881;48.784;9.192;2023-02-12T21:23:46;100557.47;;;5.53;80.82
41140;BME280;26881;48.784;9.192;2023-02-12T21:29:09;100556.66;;;5.40;81.35
41140;BME280;26881;48.784;9.192;2023-02-12T21:34:30;100562.72;;;5.44;81.23
41140;BME280;26881;48.784;9.192;2023-02-12T21:39:52;100548.91;;;5.36;82.17
41140;BME280;26881;48.784;9.192;2023-02-12T21:45:14;100555.00;;;5.30;82.27
41140;BME280;26881;48.784;9.192;2023-02-12T21:50:35;100551.63;;;5.14;83.05
41140;BME280;26881;48.784;9.192;2023-02-12T21:56:02;100549.91;;;5.13;82.76
41140;BME280;26881;48.784;9.192;2023-02-12T22:01:27;100559.44;;;5.11;83.78
41140;BME280;26881;48.784;9.192;2023-02-12T22:06:49;100556.00;;;5.06;83.55
41140;BME280;26881;48.784;9.192;2023-02-12T22:12:11;100553.41;;;5.03;83.80
41140;BME280;26881;48.784;9.192;2023-02-12T22:17:33;100549.13;;;4.97;83.82
41140;BME280;26881;48.784;9.192;2023-02-12T22:22:55;100557.75;;;4.98;83.98
41140;BME280;26881;48.784;9.192;2023-02-12T22:28:16;100552.66;;;4.79;84.67
41140;BME280;26881;48.784;9.192;2023-02-12T22:33:39;100554.38;;;4.80;84.75
41140;BME280;26881;48.784;9.192;2023-02-12T22:39:00;100548.31;;;4.81;84.43
41140;BME280;26881;48.784;9.192;2023-02-12T22:44:22;100544.91;;;4.72;84.78
41140;BME280;26881;48.784;9.192;2023-02-12T22:49:44;100559.59;;;4.74;85.14
41140;BME280;26881;48.784;9.192;2023-02-12T22:55:06;100562.19;;;4.68;85.00
41140;BME280;26881;48.784;9.192;2023-02-12T23:00:27;100557.88;;;4.61;85.57
41140;BME280;26881;48.784;9.192;2023-02-12T23:05:49;100555.34;;;4.49;86.47
41140;BME280;26881;48.784;9.192;2023-02-12T23:11:11;100560.50;;;4.47;85.92
41140;BME280;26881;48.784;9.192;2023-02-12T23:16:33;100562.28;;;4.34;86.91
41140;BME280;26881;48.784;9.192;2023-02-12T23:21:55;100564.00;;;4.08;88.23
41140;BME280;26881;48.784;9.192;2023-02-12T23:27:16;100563.16;;;4.12;87.25
41140;BME280;26881;48.784;9.192;2023-02-12T23:32:38;100554.53;;;3.96;87.85
41140;BME280;26881;48.784;9.192;2023-02-12T23:38:00;100550.22;;;4.07;87.68
41140;BME280;26881;48.784;9.192;2023-02-12T23:43:21;100556.25;;;4.14;86.64
41140;BME280;26881;48.784;9.192;2023-02-12T23:48:43;100547.63;;;4.03;87.84
41140;BME280;26881;48.784;9.192;2023-02-12T23:54:05;100548.50;;;3.92;88.03
41140;BME280;26881;48.784;9.192;2023-02-12T23:59:27;100554.53;;;3.87;88.56
